METAR AND TAF INFORMATION
METAR FOR SBPB
ADDS - METARS form results

(1042 UTC 20 July 2019)
Data provider http://aviationweather.gov/metar/data/
 
Forecast for: SBPB (PARNAIBA AIRPORT, BR)
Text: TAF SBPB 201000Z 2012/2024 06010KT 9999 SCT020 TN25/2012Z TX34/2017Z
Forecast period: 1200 to 1900 UTC 20 July 2019
Forecast type: FROM: standard forecast or significant change
Winds: from the ENE (60 degrees) at 12 MPH (10 knots; 5.1 m/s)
Visibility: 6 or more miles 10+ km)
Ceiling: at least 12,000 feet AGL
Clouds: scattered clouds at 2000 feet AGL
Weather: no significant weather forecast for this period
Text: BECMG 2019/2021 FEW025 RMK PEN
Forecast period: 1900 UTC 20 July 2019 to 0000 UTC 21 July 2019
Forecast type: BECOMING: Conditions expected to become as follows by 2100 UTC 20 July 2019
Winds: from the ENE (60 degrees) at 12 MPH (10 knots; 5.1 m/s)
Visibility: 6 or more miles 10+ km)
Ceiling: at least 12,000 feet AGL
Clouds: few clouds at 2500 feet AGL
Weather: no significant weather forecast for this period

 AIRPORT MAP

 RUNWAY INFORMATION
Runway 9 Runway length 6890 ft Runway width 148 ft
Runway elevation 0 ft Runway displaced threshold 0 ft Runway heading 0
Runway 27 Runway length 6890 ft Runway width 148 ft
Runway elevation 0 ft Runway displaced threshold 0 ft Runway heading 0

 AIRPORT FREQUENCIES
Type AFIS Name RDO Frequency 126.6 MHZ

 AIRPORT NEAR NAVIGATION AIDS
Type NDB Name Parnaiba Frequency 365 KHZ



Powered by Virtual Airlines Manager [v2.6.2]